Time;durP1;ratioP1;P1;durP2;ratioP2;P2;SDS_P1;SDS_P2;PMS_P1;PMS_P2;Temp;Humidity;BMP_temperature;BMP_pressure;BME280_temperature;BME280_humidity;BME280_pressure;Samples;Min_cycle;Max_cycle;Signal;HPM_P1;HPM_P2
2021/04/04 00:01:22;;;;;;;1.40;0.70;;;;;;;;;;5015250;28;20101;-52
2021/04/04 00:03:49;;;;;;;2.50;1.13;;;;;;;;;;5015160;28;20477;-52
2021/04/04 00:06:15;;;;;;;1.65;0.90;;;;;;;;;;5014692;28;20091;-54
2021/04/04 00:08:41;;;;;;;1.63;0.90;;;;;;;;;;5015054;28;20409;-46
2021/04/04 00:11:07;;;;;;;1.08;0.70;;;;;;;;;;5015043;28;20033;-50
2021/04/04 00:13:34;;;;;;;1.80;0.90;;;;;;;;;;5015068;28;20129;-55
2021/04/04 00:16:00;;;;;;;1.35;0.73;;;;;;;;;;5014904;28;20037;-51
2021/04/04 00:18:26;;;;;;;1.38;0.75;;;;;;;;;;5015136;28;20060;-54
2021/04/04 00:20:52;;;;;;;2.08;0.98;;;;;;;;;;5014716;28;20037;-53
2021/04/04 00:23:18;;;;;;;1.83;0.95;;;;;;;;;;5014809;28;20036;-52
2021/04/04 00:25:44;;;;;;;2.25;1.17;;;;;;;;;;5014572;28;20033;-50
2021/04/04 00:28:10;;;;;;;2.55;1.20;;;;;;;;;;5014678;28;20487;-53
2021/04/04 00:30:36;;;;;;;1.98;1.10;;;;;;;;;;5014706;28;20108;-48
2021/04/04 00:33:03;;;;;;;2.95;1.30;;;;;;;;;;5014658;28;20153;-52
2021/04/04 00:35:29;;;;;;;2.50;1.38;;;;;;;;;;5014529;28;20018;-50
2021/04/04 00:37:55;;;;;;;3.75;1.50;;;;;;;;;;5014957;28;20354;-51
2021/04/04 00:40:23;;;;;;;3.33;1.63;;;;;;;;;;5014184;28;20056;-52
2021/04/04 00:42:49;;;;;;;3.75;1.60;;;;;;;;;;5013170;28;20048;-51
2021/04/04 00:45:20;;;;;;;2.55;1.40;;;;;;;;;;5014378;28;20488;-50
2021/04/04 00:47:46;;;;;;;2.42;1.30;;;;;;;;;;5014227;28;20038;-54
2021/04/04 00:50:13;;;;;;;3.33;1.70;;;;;;;;;;5014288;28;20022;-56
2021/04/04 00:52:39;;;;;;;3.03;1.48;;;;;;;;;;5014046;28;20358;-55
2021/04/04 00:55:06;;;;;;;2.78;1.40;;;;;;;;;;5014177;28;20025;-54
2021/04/04 00:57:33;;;;;;;3.05;1.52;;;;;;;;;;5014173;28;20022;-50
2021/04/04 01:00:00;;;;;;;3.08;1.40;;;;;;;;;;5014203;28;20466;-51
2021/04/04 01:02:26;;;;;;;2.40;1.23;;;;;;;;;;5014092;28;20030;-47
2021/04/04 01:04:53;;;;;;;2.50;1.20;;;;;;;;;;5013911;28;20511;-53
2021/04/04 01:07:20;;;;;;;4.55;1.50;;;;;;;;;;5013705;28;20034;-52
2021/04/04 01:09:46;;;;;;;2.92;1.15;;;;;;;;;;5013924;28;20014;-55
2021/04/04 01:12:16;;;;;;;2.17;1.20;;;;;;;;;;5013831;28;20104;-51
2021/04/04 01:14:46;;;;;;;2.50;1.20;;;;;;;;;;5013797;28;20021;-53
2021/04/04 01:17:14;;;;;;;1.77;1.00;;;;;;;;;;5013144;28;20056;-55
2021/04/04 01:19:40;;;;;;;1.88;1.00;;;;;;;;;;5013447;28;20547;-55
2021/04/04 01:22:22;;;;;;;2.45;1.35;;;;;;;;;;5013561;28;20034;-50
2021/04/04 01:25:05;;;;;;;1.57;1.00;;;;;;;;;;5013915;28;20040;-53
2021/04/04 01:27:41;;;;;;;1.10;0.70;;;;;;;;;;5013612;28;20291;-53
2021/04/04 01:30:08;;;;;;;1.50;1.00;;;;;;;;;;5013528;28;20030;-52
2021/04/04 01:32:35;;;;;;;1.50;0.90;;;;;;;;;;5013487;28;20101;-50
2021/04/04 01:35:02;;;;;;;1.40;0.88;;;;;;;;;;5013554;28;20036;-56
2021/04/04 01:37:28;;;;;;;1.63;0.90;;;;;;;;;;5013272;28;20495;-52
2021/04/04 01:39:57;;;;;;;1.63;0.88;;;;;;;;;;5013083;28;20057;-53
2021/04/04 01:42:23;;;;;;;1.77;1.08;;;;;;;;;;5013401;28;20030;-51
2021/04/04 01:44:50;;;;;;;1.70;1.00;;;;;;;;;;5013334;28;20030;-46
2021/04/04 01:47:16;;;;;;;1.63;1.02;;;;;;;;;;5013159;28;20042;-55
2021/04/04 01:49:48;;;;;;;2.35;1.20;;;;;;;;;;5013178;28;20026;-50
2021/04/04 01:54:50;;;;;;;2.22;1.23;;;;;;;;;;5138087;22;20426;-51
2021/04/04 01:57:16;;;;;;;2.00;1.20;;;;;;;;;;5012377;28;20026;-48
2021/04/04 01:59:43;;;;;;;1.98;1.10;;;;;;;;;;5012259;28;20572;-47
2021/04/04 02:02:10;;;;;;;1.98;1.05;;;;;;;;;;5012305;28;20026;-52
2021/04/04 02:04:37;;;;;;;2.17;1.20;;;;;;;;;;5012284;28;20029;-54
2021/04/04 02:07:05;;;;;;;2.08;1.20;;;;;;;;;;5012275;28;20040;-48
2021/04/04 02:09:32;;;;;;;2.38;1.13;;;;;;;;;;5012332;28;20038;-53
2021/04/04 02:11:59;;;;;;;2.08;1.20;;;;;;;;;;5012065;28;20044;-54
2021/04/04 02:14:25;;;;;;;2.33;1.40;;;;;;;;;;5012081;28;20053;-49
2021/04/04 02:16:53;;;;;;;6.95;1.73;;;;;;;;;;5012083;28;20385;-50
2021/04/04 02:19:20;;;;;;;2.85;1.30;;;;;;;;;;5012005;28;20030;-51
2021/04/04 02:21:50;;;;;;;3.20;1.60;;;;;;;;;;5011997;28;20030;-51
2021/04/04 02:24:17;;;;;;;3.30;1.70;;;;;;;;;;5011844;28;20037;-51
2021/04/04 02:26:44;;;;;;;3.25;1.50;;;;;;;;;;5012042;28;20052;-49
2021/04/04 02:29:10;;;;;;;2.83;1.60;;;;;;;;;;5011934;28;20033;-48
2021/04/04 02:31:39;;;;;;;4.30;2.05;;;;;;;;;;5011938;28;20028;-47
2021/04/04 02:34:15;;;;;;;4.47;2.25;;;;;;;;;;5012243;28;20048;-48
2021/04/04 02:36:42;;;;;;;4.13;2.10;;;;;;;;;;5011840;28;20022;-51
2021/04/04 02:39:09;;;;;;;5.35;2.63;;;;;;;;;;5011672;28;20476;-46
2021/04/04 02:41:36;;;;;;;5.63;3.15;;;;;;;;;;5011926;28;20026;-50
2021/04/04 02:44:02;;;;;;;6.22;3.20;;;;;;;;;;5011971;28;20037;-52
2021/04/04 02:46:29;;;;;;;8.50;4.47;;;;;;;;;;5011612;28;20042;-50
2021/04/04 02:49:03;;;;;;;10.48;4.45;;;;;;;;;;5011712;28;20034;-51
2021/04/04 02:51:49;;;;;;;12.15;5.38;;;;;;;;;;5011804;28;20018;-45
2021/04/04 02:54:16;;;;;;;11.15;4.95;;;;;;;;;;5011098;28;20137;-55
2021/04/04 02:56:45;;;;;;;9.52;4.38;;;;;;;;;;5011615;28;20026;-49
2021/04/04 02:59:15;;;;;;;8.52;4.30;;;;;;;;;;5011818;28;20400;-57
2021/04/04 03:01:41;;;;;;;10.35;4.70;;;;;;;;;;5011605;28;20018;-51
2021/04/04 03:04:08;;;;;;;8.10;4.22;;;;;;;;;;4994095;28;20366;-46
2021/04/04 03:06:36;;;;;;;7.97;4.35;;;;;;;;;;5011495;28;20066;-52
2021/04/04 03:09:03;;;;;;;8.15;4.65;;;;;;;;;;5011458;28;20033;-48
2021/04/04 03:11:29;;;;;;;7.30;4.43;;;;;;;;;;5011477;28;20025;-53
2021/04/04 03:13:56;;;;;;;7.30;4.22;;;;;;;;;;5011480;28;20461;-50
2021/04/04 03:16:22;;;;;;;6.85;4.32;;;;;;;;;;5011402;28;20030;-48
2021/04/04 03:18:50;;;;;;;7.85;4.32;;;;;;;;;;5011317;28;20145;-46
2021/04/04 03:21:17;;;;;;;8.13;4.13;;;;;;;;;;5011724;28;20025;-52
2021/04/04 03:23:44;;;;;;;8.98;5.03;;;;;;;;;;5011281;28;20041;-51
2021/04/04 03:26:12;;;;;;;7.40;4.35;;;;;;;;;;5011250;28;20041;-47
2021/04/04 03:28:39;;;;;;;8.65;4.88;;;;;;;;;;5011489;28;20466;-47
2021/04/04 03:31:05;;;;;;;7.72;4.75;;;;;;;;;;5011660;28;20432;-47
2021/04/04 03:33:32;;;;;;;8.48;5.32;;;;;;;;;;5011303;28;20045;-48
2021/04/04 03:35:59;;;;;;;9.50;5.90;;;;;;;;;;4993639;28;20045;-54
2021/04/04 03:38:25;;;;;;;9.23;5.70;;;;;;;;;;5011524;28;20457;-47
2021/04/04 03:40:52;;;;;;;7.85;5.25;;;;;;;;;;5012453;28;20095;-49
2021/04/04 03:43:23;;;;;;;8.95;5.72;;;;;;;;;;5014890;28;20131;-51
2021/04/04 03:45:58;;;;;;;8.80;5.97;;;;;;;;;;5014776;28;20112;-45
2021/04/04 03:48:25;;;;;;;9.90;5.88;;;;;;;;;;5014737;28;20026;-51
2021/04/04 03:50:51;;;;;;;9.65;6.70;;;;;;;;;;5014644;28;20376;-49
2021/04/04 03:53:19;;;;;;;9.68;6.32;;;;;;;;;;5014395;28;20054;-49
2021/04/04 03:55:45;;;;;;;10.02;6.25;;;;;;;;;;5014542;28;20029;-49
2021/04/04 03:58:12;;;;;;;9.77;6.53;;;;;;;;;;5014521;28;20021;-52
2021/04/04 04:00:39;;;;;;;10.93;6.15;;;;;;;;;;5014846;28;20022;-52
2021/04/04 04:03:08;;;;;;;10.60;7.15;;;;;;;;;;5014459;28;20033;-48
2021/04/04 04:05:34;;;;;;;11.13;7.00;;;;;;;;;;5014447;28;20025;-46
2021/04/04 04:08:01;;;;;;;9.80;6.60;;;;;;;;;;5014338;28;20037;-47
2021/04/04 04:10:28;;;;;;;10.05;6.35;;;;;;;;;;5014697;28;20372;-49
2021/04/04 04:12:54;;;;;;;11.48;6.78;;;;;;;;;;4996752;28;20385;-49
2021/04/04 04:15:21;;;;;;;15.02;7.50;;;;;;;;;;5014252;28;20030;-46
2021/04/04 04:17:47;;;;;;;12.25;7.28;;;;;;;;;;5014233;28;20025;-44
2021/04/04 04:20:14;;;;;;;15.07;7.30;;;;;;;;;;5014392;28;20026;-50
2021/04/04 04:22:40;;;;;;;18.13;8.23;;;;;;;;;;5014168;28;20033;-49
2021/04/04 04:25:07;;;;;;;20.27;8.90;;;;;;;;;;5013861;28;20029;-46
2021/04/04 04:27:34;;;;;;;13.35;7.30;;;;;;;;;;5013937;28;20050;-46
2021/04/04 04:30:00;;;;;;;19.17;9.23;;;;;;;;;;5013849;28;20026;-48
2021/04/04 04:32:27;;;;;;;16.90;8.82;;;;;;;;;;5013806;28;20029;-47
2021/04/04 04:34:54;;;;;;;15.45;8.05;;;;;;;;;;5013898;28;20022;-49
2021/04/04 04:37:21;;;;;;;15.50;7.78;;;;;;;;;;5013756;28;20477;-49
2021/04/04 04:39:48;;;;;;;12.90;7.43;;;;;;;;;;5013548;28;20022;-47
2021/04/04 04:42:14;;;;;;;13.35;7.65;;;;;;;;;;5013861;28;20477;-51
2021/04/04 04:44:42;;;;;;;13.88;8.23;;;;;;;;;;5013772;28;20029;-53
2021/04/04 04:47:13;;;;;;;12.85;7.80;;;;;;;;;;5013529;28;20030;-47
2021/04/04 04:49:39;;;;;;;13.43;8.40;;;;;;;;;;4996041;28;20432;-49
2021/04/04 04:52:05;;;;;;;13.30;8.57;;;;;;;;;;5012607;28;20113;-47
2021/04/04 04:54:32;;;;;;;13.10;8.10;;;;;;;;;;5013240;28;20108;-49
2021/04/04 04:56:59;;;;;;;14.90;9.18;;;;;;;;;;5013153;28;20466;-52
2021/04/04 04:59:25;;;;;;;14.23;8.20;;;;;;;;;;5013357;28;20358;-50
2021/04/04 05:01:51;;;;;;;16.35;9.18;;;;;;;;;;5013329;28;20090;-51
2021/04/04 05:04:18;;;;;;;12.15;7.78;;;;;;;;;;5013326;28;20539;-49
2021/04/04 05:06:46;;;;;;;11.23;7.40;;;;;;;;;;5013337;28;20042;-48
2021/04/04 05:09:13;;;;;;;13.98;8.40;;;;;;;;;;5013299;28;20026;-52
2021/04/04 05:11:46;;;;;;;12.52;8.05;;;;;;;;;;5013239;28;20101;-50
2021/04/04 05:14:13;;;;;;;11.85;7.88;;;;;;;;;;5013294;28;20396;-49
2021/04/04 05:16:39;;;;;;;13.75;8.50;;;;;;;;;;5013063;28;20046;-49
2021/04/04 05:19:09;;;;;;;13.63;8.02;;;;;;;;;;5013012;28;20037;-48
2021/04/04 05:21:36;;;;;;;15.30;8.63;;;;;;;;;;5012912;28;20113;-52
2021/04/04 05:24:04;;;;;;;14.82;8.20;;;;;;;;;;5012866;28;20061;-51
2021/04/04 05:26:32;;;;;;;15.20;8.57;;;;;;;;;;5012601;28;20092;-48
2021/04/04 05:29:02;;;;;;;12.30;7.82;;;;;;;;;;5012805;28;20026;-48
2021/04/04 05:31:29;;;;;;;13.25;8.77;;;;;;;;;;5012696;28;20049;-50
2021/04/04 05:33:55;;;;;;;14.18;8.98;;;;;;;;;;5013096;28;20422;-51
2021/04/04 05:36:22;;;;;;;14.82;8.52;;;;;;;;;;5012862;28;20014;-48
2021/04/04 05:38:48;;;;;;;13.38;8.52;;;;;;;;;;5012690;28;20026;-49
2021/04/04 05:41:15;;;;;;;13.88;9.05;;;;;;;;;;5012718;28;20424;-50
2021/04/04 05:43:42;;;;;;;13.15;8.75;;;;;;;;;;5012799;28;20048;-48
2021/04/04 05:46:09;;;;;;;12.32;8.13;;;;;;;;;;5012486;28;20022;-48
2021/04/04 05:48:40;;;;;;;13.20;8.65;;;;;;;;;;5012725;28;20350;-49
2021/04/04 05:51:10;;;;;;;13.95;8.40;;;;;;;;;;5012400;28;20037;-50
2021/04/04 05:53:38;;;;;;;15.48;9.50;;;;;;;;;;5012245;28;20052;-49
2021/04/04 05:56:08;;;;;;;14.02;8.65;;;;;;;;;;5012134;28;20028;-46
2021/04/04 05:58:39;;;;;;;13.88;8.32;;;;;;;;;;5012311;28;20030;-53
2021/04/04 06:01:31;;;;;;;15.15;9.40;;;;;;;;;;5012554;28;20026;-50
2021/04/04 06:03:57;;;;;;;19.60;10.27;;;;;;;;;;4981899;28;20073;-48
2021/04/04 06:06:26;;;;;;;18.67;9.88;;;;;;;;;;5012055;28;20540;-48
2021/04/04 06:09:11;;;;;;;18.75;10.77;;;;;;;;;;4994553;28;20041;-50
2021/04/04 06:11:46;;;;;;;19.67;10.85;;;;;;;;;;5011908;28;20033;-49
2021/04/04 06:14:31;;;;;;;20.55;11.10;;;;;;;;;;5012079;28;20366;-52
2021/04/04 06:17:20;;;;;;;20.95;11.95;;;;;;;;;;5012063;28;20026;-51
2021/04/04 06:20:11;;;;;;;18.38;10.75;;;;;;;;;;5012375;28;20041;-52
2021/04/04 06:22:49;;;;;;;19.40;11.15;;;;;;;;;;5002998;28;20041;-49
2021/04/04 06:25:22;;;;;;;19.67;11.10;;;;;;;;;;5012385;28;20029;-47
2021/04/04 06:27:48;;;;;;;;;;;;;;;;;;5012256;28;20124;-49
2021/04/04 06:30:20;;;;;;;19.77;12.38;;;;;;;;;;5011898;28;19998;-50
2021/04/04 06:33:05;;;;;;;19.85;11.75;;;;;;;;;;5012197;28;20026;-50
2021/04/04 06:35:38;;;;;;;24.98;14.45;;;;;;;;;;5011797;28;20481;-48
2021/04/04 06:38:33;;;;;;;18.75;11.90;;;;;;;;;;5011785;28;20034;-50
2021/04/04 06:41:14;;;;;;;25.45;13.32;;;;;;;;;;4994836;28;20042;-52
2021/04/04 06:43:59;;;;;;;35.33;16.45;;;;;;;;;;5011750;28;20026;-49
2021/04/04 06:46:49;;;;;;;28.70;15.52;;;;;;;;;;5011617;28;20030;-54
2021/04/04 06:49:34;;;;;;;47.58;20.17;;;;;;;;;;5011591;28;20041;-49
2021/04/04 06:52:23;;;;;;;35.33;19.02;;;;;;;;;;5011709;28;20083;-48
2021/04/04 06:54:53;;;;;;;22.23;14.23;;;;;;;;;;5011115;28;20541;-50
2021/04/04 06:57:38;;;;;;;22.17;14.15;;;;;;;;;;5011825;28;20026;-51
2021/04/04 07:00:09;;;;;;;23.67;13.73;;;;;;;;;;5011619;28;20404;-48
2021/04/04 07:02:45;;;;;;;24.30;14.18;;;;;;;;;;5011586;28;20026;-49
2021/04/04 07:05:12;;;;;;;26.13;16.63;;;;;;;;;;5011581;28;20096;-49
2021/04/04 07:07:47;;;;;;;23.58;14.77;;;;;;;;;;5011465;28;20034;-54
2021/04/04 07:10:15;;;;;;;22.60;14.63;;;;;;;;;;5011476;28;20018;-52
2021/04/04 07:12:54;;;;;;;23.55;14.93;;;;;;;;;;5011394;28;20030;-50
2021/04/04 07:15:39;;;;;;;21.65;14.27;;;;;;;;;;5011904;28;20022;-50
2021/04/04 07:18:32;;;;;;;19.88;11.95;;;;;;;;;;4997623;28;20385;-47
2021/04/04 07:21:10;;;;;;;18.52;12.07;;;;;;;;;;4985209;28;20500;-51
2021/04/04 07:24:02;;;;;;;19.50;13.35;;;;;;;;;;5015086;28;20029;-49
2021/04/04 07:26:41;;;;;;;22.42;15.27;;;;;;;;;;4984944;28;20034;-51
2021/04/04 07:29:10;;;;;;;24.90;14.63;;;;;;;;;;5015062;28;20030;-46
2021/04/04 07:31:38;;;;;;;20.67;12.25;;;;;;;;;;5015086;28;20022;-46
2021/04/04 07:34:07;;;;;;;18.92;12.23;;;;;;;;;;5014962;28;20064;-45
2021/04/04 07:36:48;;;;;;;20.33;13.75;;;;;;;;;;5014890;28;20037;-45
2021/04/04 07:39:30;;;;;;;24.75;14.90;;;;;;;;;;5014853;28;20052;-50
2021/04/04 07:41:56;;;;;;;21.85;14.02;;;;;;;;;;5014979;28;20029;-49
2021/04/04 07:44:41;;;;;;;25.02;15.75;;;;;;;;;;5015007;28;20025;-46
2021/04/04 07:47:07;;;;;;;24.50;15.68;;;;;;;;;;5014601;28;20503;-48
2021/04/04 07:49:35;;;;;;;19.77;13.43;;;;;;;;;;5014707;28;20427;-48
2021/04/04 07:52:01;;;;;;;18.33;11.82;;;;;;;;;;5014883;28;20373;-48
2021/04/04 07:54:30;;;;;;;18.55;11.45;;;;;;;;;;5014595;28;20558;-48
2021/04/04 07:57:04;;;;;;;22.05;13.02;;;;;;;;;;5014502;28;20037;-50
2021/04/04 07:59:39;;;;;;;17.27;11.70;;;;;;;;;;5014391;28;20048;-49
2021/04/04 08:02:15;;;;;;;24.23;12.45;;;;;;;;;;5014550;28;20052;-48
2021/04/04 08:04:50;;;;;;;20.23;12.07;;;;;;;;;;5014447;28;20026;-48
2021/04/04 08:07:20;;;;;;;21.55;13.23;;;;;;;;;;5014491;28;20085;-50
2021/04/04 08:09:53;;;;;;;19.45;12.07;;;;;;;;;;5014271;28;20018;-48
2021/04/04 08:12:39;;;;;;;23.55;14.85;;;;;;;;;;5014441;28;20033;-48
2021/04/04 08:15:12;;;;;;;18.80;10.68;;;;;;;;;;5014267;28;20033;-53
2021/04/04 08:17:38;;;;;;;15.75;10.50;;;;;;;;;;5014211;28;20048;-53
2021/04/04 08:20:14;;;;;;;13.77;9.35;;;;;;;;;;5014090;28;20508;-49
2021/04/04 08:22:41;;;;;;;14.65;10.35;;;;;;;;;;5014155;28;20026;-48
2021/04/04 08:25:10;;;;;;;14.00;9.35;;;;;;;;;;5014063;28;20050;-52
2021/04/04 08:27:39;;;;;;;11.70;8.10;;;;;;;;;;5013685;28;20048;-47
2021/04/04 08:30:08;;;;;;;12.88;8.30;;;;;;;;;;5014048;28;20033;-48
2021/04/04 08:32:38;;;;;;;13.02;8.80;;;;;;;;;;5013950;28;20033;-48
2021/04/04 08:35:07;;;;;;;16.08;10.00;;;;;;;;;;5013886;28;20045;-52
2021/04/04 08:37:39;;;;;;;14.85;9.52;;;;;;;;;;5013823;28;20022;-50
2021/04/04 08:40:07;;;;;;;15.37;9.53;;;;;;;;;;5013806;28;20026;-50
2021/04/04 08:42:34;;;;;;;13.48;9.50;;;;;;;;;;5013514;28;20481;-49
2021/04/04 08:45:07;;;;;;;17.42;10.95;;;;;;;;;;5013712;28;20037;-49
2021/04/04 08:47:33;;;;;;;13.60;9.48;;;;;;;;;;5013885;28;20057;-56
2021/04/04 08:50:06;;;;;;;14.35;9.48;;;;;;;;;;5013602;28;20441;-51
2021/04/04 08:52:34;;;;;;;18.03;9.97;;;;;;;;;;5013622;28;20053;-55
2021/04/04 08:55:00;;;;;;;16.60;10.88;;;;;;;;;;5013169;28;20077;-50
2021/04/04 08:57:37;;;;;;;21.90;12.88;;;;;;;;;;5013427;28;20040;-49
2021/04/04 09:00:08;;;;;;;21.63;13.10;;;;;;;;;;4995896;28;20109;-50
2021/04/04 09:02:40;;;;;;;21.45;11.68;;;;;;;;;;5013372;28;20531;-55
2021/04/04 09:05:08;;;;;;;19.52;11.05;;;;;;;;;;5013240;28;20481;-53
2021/04/04 09:07:35;;;;;;;14.82;9.05;;;;;;;;;;5013359;28;20425;-51
2021/04/04 09:10:05;;;;;;;16.67;10.45;;;;;;;;;;5013172;28;20026;-48
2021/04/04 09:12:32;;;;;;;12.85;8.93;;;;;;;;;;5012965;28;20025;-52
2021/04/04 09:15:02;;;;;;;15.23;9.50;;;;;;;;;;5013233;28;20077;-54
2021/04/04 09:17:28;;;;;;;16.35;10.02;;;;;;;;;;5013218;28;20034;-50
2021/04/04 09:19:58;;;;;;;16.85;10.20;;;;;;;;;;5012979;28;20425;-51
2021/04/04 09:22:24;;;;;;;19.25;10.80;;;;;;;;;;5012972;28;20049;-53
2021/04/04 09:24:54;;;;;;;18.17;10.63;;;;;;;;;;5012914;28;20029;-46
2021/04/04 09:27:22;;;;;;;14.10;9.00;;;;;;;;;;5013054;28;20385;-48
2021/04/04 09:29:51;;;;;;;17.67;10.20;;;;;;;;;;5012758;28;20026;-52
2021/04/04 09:32:25;;;;;;;19.98;10.55;;;;;;;;;;5012678;28;20034;-51
2021/04/04 09:34:52;;;;;;;20.20;11.77;;;;;;;;;;5012648;28;20030;-50
2021/04/04 09:37:22;;;;;;;18.50;11.98;;;;;;;;;;5012751;28;20029;-51
2021/04/04 09:39:49;;;;;;;17.27;10.68;;;;;;;;;;5012082;28;20022;-49
2021/04/04 09:42:15;;;;;;;18.58;10.23;;;;;;;;;;5012420;28;20033;-48
2021/04/04 09:44:42;;;;;;;12.65;8.07;;;;;;;;;;5012395;28;20025;-50
2021/04/04 09:47:08;;;;;;;19.65;10.57;;;;;;;;;;5012400;28;20052;-51
2021/04/04 09:49:35;;;;;;;20.77;11.80;;;;;;;;;;5012443;28;20018;-56
2021/04/04 09:52:14;;;;;;;19.20;10.32;;;;;;;;;;5012594;28;20036;-50
2021/04/04 09:55:00;;;;;;;16.15;9.60;;;;;;;;;;5012261;28;20449;-47
2021/04/04 09:57:26;;;;;;;18.55;10.60;;;;;;;;;;5012392;28;20493;-49
2021/04/04 09:59:52;;;;;;;23.13;11.32;;;;;;;;;;5012204;28;20026;-46
2021/04/04 10:02:36;;;;;;;25.58;13.35;;;;;;;;;;5012272;28;20030;-55
2021/04/04 10:05:04;;;;;;;18.85;11.80;;;;;;;;;;5012411;28;20116;-48
2021/04/04 10:07:33;;;;;;;18.02;10.18;;;;;;;;;;5012281;28;20038;-55
2021/04/04 10:10:03;;;;;;;16.02;9.88;;;;;;;;;;5012581;28;20076;-52
2021/04/04 10:12:29;;;;;;;14.07;8.80;;;;;;;;;;5012307;28;20034;-44
2021/04/04 10:15:06;;;;;;;14.60;9.55;;;;;;;;;;5012015;28;20022;-46
2021/04/04 10:17:34;;;;;;;18.88;11.15;;;;;;;;;;5012235;28;20075;-48
2021/04/04 10:20:03;;;;;;;22.00;10.80;;;;;;;;;;5012138;28;20072;-45
2021/04/04 10:22:47;;;;;;;21.30;11.25;;;;;;;;;;5012005;28;20022;-50
2021/04/04 10:25:13;;;;;;;17.63;10.70;;;;;;;;;;5011975;28;20057;-50
2021/04/04 10:27:39;;;;;;;20.30;11.43;;;;;;;;;;5011815;28;20046;-55
2021/04/04 10:30:12;;;;;;;19.23;10.07;;;;;;;;;;5011772;28;20030;-54
2021/04/04 10:32:38;;;;;;;16.48;10.32;;;;;;;;;;5011744;28;20113;-51
2021/04/04 10:35:06;;;;;;;21.35;11.18;;;;;;;;;;5012014;28;20040;-50
2021/04/04 10:37:32;;;;;;;17.67;10.68;;;;;;;;;;5012042;28;20072;-49
2021/04/04 10:40:04;;;;;;;16.50;10.07;;;;;;;;;;5011760;28;20084;-50
2021/04/04 10:42:30;;;;;;;16.98;10.57;;;;;;;;;;5011749;28;20039;-52
2021/04/04 10:45:11;;;;;;;16.58;9.27;;;;;;;;;;5011580;28;20022;-49
2021/04/04 10:47:38;;;;;;;15.98;9.40;;;;;;;;;;5011702;28;20038;-47
2021/04/04 10:50:07;;;;;;;18.67;11.07;;;;;;;;;;5012028;28;20025;-50
2021/04/04 10:52:34;;;;;;;19.05;11.18;;;;;;;;;;5015925;28;20034;-55
2021/04/04 10:55:00;;;;;;;20.38;11.77;;;;;;;;;;5015497;28;20086;-50
2021/04/04 10:57:28;;;;;;;22.60;13.95;;;;;;;;;;5015705;28;20022;-53
2021/04/04 10:59:54;;;;;;;23.27;12.02;;;;;;;;;;5015510;28;20428;-52
2021/04/04 11:02:21;;;;;;;23.10;13.57;;;;;;;;;;5015502;28;20076;-53
2021/04/04 11:04:47;;;;;;;22.15;12.90;;;;;;;;;;5015565;28;20474;-51
2021/04/04 11:07:14;;;;;;;26.48;13.82;;;;;;;;;;5015439;28;20092;-53
2021/04/04 11:09:40;;;;;;;27.85;15.70;;;;;;;;;;5015493;28;20079;-49
2021/04/04 11:12:07;;;;;;;21.13;13.63;;;;;;;;;;5015534;28;20026;-53
2021/04/04 11:14:33;;;;;;;16.40;10.90;;;;;;;;;;5015623;28;20038;-49
2021/04/04 11:17:01;;;;;;;18.27;11.93;;;;;;;;;;5015647;28;20018;-52
2021/04/04 11:19:28;;;;;;;16.65;10.32;;;;;;;;;;5015298;28;20018;-47
2021/04/04 11:21:55;;;;;;;14.35;9.68;;;;;;;;;;5015300;28;20029;-51
2021/04/04 11:24:24;;;;;;;13.43;8.73;;;;;;;;;;5015111;28;20030;-54
2021/04/04 11:26:53;;;;;;;16.20;9.88;;;;;;;;;;5015137;28;20046;-51
2021/04/04 11:29:21;;;;;;;19.15;11.38;;;;;;;;;;5014867;28;20045;-55
2021/04/04 11:31:51;;;;;;;16.05;9.30;;;;;;;;;;5015095;28;20481;-54
2021/04/04 11:34:24;;;;;;;12.23;8.50;;;;;;;;;;5014999;28;20105;-49
2021/04/04 11:36:50;;;;;;;14.88;9.32;;;;;;;;;;5015165;28;20026;-50
2021/04/04 11:39:16;;;;;;;21.80;13.20;;;;;;;;;;5014944;28;20362;-57
2021/04/04 11:42:08;;;;;;;20.30;12.82;;;;;;;;;;5014928;28;20091;-49
2021/04/04 11:44:40;;;;;;;18.30;12.18;;;;;;;;;;5011046;28;20042;-48
2021/04/04 11:47:22;;;;;;;19.90;12.55;;;;;;;;;;5014684;28;20041;-52
2021/04/04 11:49:57;;;;;;;16.45;11.25;;;;;;;;;;5014764;28;20109;-51
2021/04/04 11:52:23;;;;;;;19.20;12.40;;;;;;;;;;5014698;28;20034;-51
2021/04/04 11:54:50;;;;;;;19.35;11.68;;;;;;;;;;5014447;28;20042;-46
2021/04/04 11:57:20;;;;;;;17.98;10.30;;;;;;;;;;5014532;28;20026;-46
2021/04/04 11:59:48;;;;;;;15.00;9.95;;;;;;;;;;5014310;28;20041;-44
2021/04/04 12:02:16;;;;;;;15.38;9.73;;;;;;;;;;5014008;28;20026;-46
2021/04/04 12:04:47;;;;;;;17.35;10.50;;;;;;;;;;5014519;28;20026;-50
2021/04/04 12:07:17;;;;;;;17.50;10.88;;;;;;;;;;5014598;28;20037;-49
2021/04/04 12:09:49;;;;;;;17.20;10.65;;;;;;;;;;5014311;28;20030;-47
2021/04/04 12:12:16;;;;;;;14.15;6.75;;;;;;;;;;5014267;28;20030;-53
2021/04/04 12:14:51;;;;;;;12.82;7.72;;;;;;;;;;5014309;28;20038;-50
2021/04/04 12:17:20;;;;;;;10.13;6.68;;;;;;;;;;5014359;28;20018;-45
2021/04/04 12:19:46;;;;;;;15.85;8.30;;;;;;;;;;5014386;28;20101;-49
2021/04/04 12:22:13;;;;;;;11.40;7.15;;;;;;;;;;5014152;28;20021;-49
2021/04/04 12:24:42;;;;;;;13.25;7.65;;;;;;;;;;5014256;28;20062;-55
2021/04/04 12:27:09;;;;;;;15.25;8.77;;;;;;;;;;5014354;28;20036;-56
2021/04/04 12:29:39;;;;;;;16.42;9.07;;;;;;;;;;5013829;28;20026;-48
2021/04/04 12:32:06;;;;;;;18.35;9.10;;;;;;;;;;5013858;28;20377;-54
2021/04/04 12:34:38;;;;;;;13.65;7.85;;;;;;;;;;5013900;28;20022;-49
2021/04/04 12:37:09;;;;;;;17.08;8.88;;;;;;;;;;5013882;28;20488;-48
2021/04/04 12:39:35;;;;;;;14.60;8.40;;;;;;;;;;5014019;28;20092;-48
2021/04/04 12:42:06;;;;;;;14.80;9.30;;;;;;;;;;5013683;28;20040;-52
2021/04/04 12:44:35;;;;;;;13.63;8.40;;;;;;;;;;5013730;28;20030;-52
2021/04/04 12:47:05;;;;;;;10.48;6.45;;;;;;;;;;5013639;28;20405;-50
2021/04/04 12:49:31;;;;;;;13.65;7.85;;;;;;;;;;5013541;28;20026;-49
2021/04/04 12:51:57;;;;;;;13.80;8.55;;;;;;;;;;5013807;28;20029;-57
2021/04/04 12:54:24;;;;;;;15.13;8.98;;;;;;;;;;5013301;28;20405;-51
2021/04/04 12:56:50;;;;;;;19.67;10.15;;;;;;;;;;5013785;28;20034;-49
2021/04/04 12:59:16;;;;;;;15.50;7.85;;;;;;;;;;5013389;28;20030;-48
2021/04/04 13:01:46;;;;;;;13.45;8.40;;;;;;;;;;5013601;28;20109;-49
2021/04/04 13:04:16;;;;;;;22.83;11.00;;;;;;;;;;5013604;28;20056;-50
2021/04/04 13:06:42;;;;;;;15.98;10.13;;;;;;;;;;5013364;28;20576;-49
2021/04/04 13:09:10;;;;;;;14.82;9.07;;;;;;;;;;5013198;28;20022;-51
2021/04/04 13:11:37;;;;;;;16.95;10.02;;;;;;;;;;5013116;28;20029;-59
2021/04/04 13:14:03;;;;;;;14.88;8.90;;;;;;;;;;5012445;28;20033;-54
2021/04/04 13:16:29;;;;;;;14.43;9.32;;;;;;;;;;5012681;28;20030;-49
2021/04/04 13:18:55;;;;;;;13.02;7.50;;;;;;;;;;5013165;28;20030;-48
2021/04/04 13:21:21;;;;;;;12.35;8.38;;;;;;;;;;5012925;28;20493;-49
2021/04/04 13:23:49;;;;;;;11.50;7.50;;;;;;;;;;5012972;28;20445;-53
2021/04/04 13:26:16;;;;;;;11.48;7.35;;;;;;;;;;5012910;28;20022;-51
2021/04/04 13:28:43;;;;;;;16.33;9.30;;;;;;;;;;5013010;28;20087;-49
2021/04/04 13:31:09;;;;;;;13.48;8.27;;;;;;;;;;5012792;28;20029;-50
2021/04/04 13:33:35;;;;;;;15.00;9.52;;;;;;;;;;5012807;28;20027;-55
2021/04/04 13:36:13;;;;;;;15.80;9.25;;;;;;;;;;5012801;28;20030;-52
2021/04/04 13:38:40;;;;;;;17.52;10.45;;;;;;;;;;5012963;28;20381;-58
2021/04/04 13:41:07;;;;;;;20.38;10.90;;;;;;;;;;5012593;28;20022;-49
2021/04/04 13:43:50;;;;;;;13.48;8.05;;;;;;;;;;4995087;28;20381;-51
2021/04/04 13:46:30;;;;;;;14.57;9.00;;;;;;;;;;5012583;28;20469;-53
2021/04/04 13:48:57;;;;;;;13.95;8.43;;;;;;;;;;5012785;28;20342;-51
2021/04/04 13:51:23;;;;;;;16.25;8.50;;;;;;;;;;5012746;28;20021;-48
2021/04/04 13:53:59;;;;;;;14.30;8.50;;;;;;;;;;5012338;28;20054;-50
2021/04/04 13:56:33;;;;;;;15.27;9.15;;;;;;;;;;5012463;28;20022;-53
2021/04/04 13:59:09;;;;;;;15.80;9.43;;;;;;;;;;5012657;28;20022;-50
2021/04/04 14:01:35;;;;;;;15.15;8.55;;;;;;;;;;5012266;28;20032;-59
2021/04/04 14:04:03;;;;;;;14.60;8.57;;;;;;;;;;5012316;28;20033;-53
2021/04/04 14:06:33;;;;;;;14.20;7.68;;;;;;;;;;5012140;28;20093;-52
2021/04/04 14:08:59;;;;;;;15.77;8.52;;;;;;;;;;5012259;28;20108;-50
2021/04/04 14:11:26;;;;;;;19.15;10.10;;;;;;;;;;5012646;28;20044;-55
2021/04/04 14:13:52;;;;;;;10.65;5.65;;;;;;;;;;5012200;28;20026;-51
2021/04/04 14:16:18;;;;;;;11.15;6.63;;;;;;;;;;5012151;28;20106;-51
2021/04/04 14:18:47;;;;;;;12.43;7.65;;;;;;;;;;5012117;28;20034;-55
2021/04/04 14:21:13;;;;;;;18.13;8.80;;;;;;;;;;5012286;28;20381;-49
2021/04/04 14:23:39;;;;;;;13.50;8.50;;;;;;;;;;5012134;28;20021;-56
2021/04/04 14:26:06;;;;;;;12.15;7.03;;;;;;;;;;5011867;28;20045;-52
2021/04/04 14:28:33;;;;;;;10.07;6.57;;;;;;;;;;5011908;28;20030;-51
2021/04/04 14:31:00;;;;;;;7.35;4.90;;;;;;;;;;5012007;28;20030;-57
2021/04/04 14:33:26;;;;;;;10.35;5.45;;;;;;;;;;5011857;28;20065;-48
2021/04/04 14:35:52;;;;;;;9.95;5.30;;;;;;;;;;5012079;28;20026;-48
2021/04/04 14:38:18;;;;;;;10.27;6.50;;;;;;;;;;5012055;28;20022;-52
2021/04/04 14:40:46;;;;;;;16.05;9.93;;;;;;;;;;5012099;28;20037;-50
2021/04/04 14:45:48;;;;;;;18.25;11.30;;;;;;;;;;5011936;28;20081;-49
2021/04/04 14:48:14;;;;;;;19.58;10.18;;;;;;;;;;5011408;28;20041;-52